Time;durP1;ratioP1;P1;durP2;ratioP2;P2;SDS_P1;SDS_P2;PMS_P1;PMS_P2;Temp;Humidity;BMP_temperature;BMP_pressure;BME280_temperature;BME280_humidity;BME280_pressure;Samples;Min_cycle;Max_cycle;Signal;HPM_P1;HPM_P2
2022/11/22 00:00:18;;;;;;;;;1.00;1.00;;;;;6.39;74.01;99273.53;5076515;28;45656;-82
2022/11/22 00:02:43;;;;;;;;;0.00;0.00;;;;;6.37;74.14;99273.59;5078102;28;45233;-82
2022/11/22 00:05:09;;;;;;;;;1.00;0.00;;;;;6.37;74.37;99268.41;5076116;28;49097;-81
2022/11/22 00:07:34;;;;;;;;;2.00;0.00;;;;;6.35;74.22;99261.59;5077198;27;46627;-81
2022/11/22 00:09:59;;;;;;;;;1.00;0.50;;;;;6.33;74.42;99269.44;5076448;28;45327;-82
2022/11/22 00:12:25;;;;;;;;;0.25;0.00;;;;;6.32;74.40;99270.31;5075345;28;65506;-81
2022/11/22 00:14:50;;;;;;;;;1.00;0.00;;;;;6.31;74.52;99263.44;5075562;28;62668;-81
2022/11/22 00:17:15;;;;;;;;;0.00;0.00;;;;;6.30;74.56;99269.53;5076861;28;70983;-82
2022/11/22 00:19:41;;;;;;;;;1.00;0.00;;;;;6.28;74.46;99266.16;5076304;28;45229;-82
2022/11/22 00:22:07;;;;;;;;;1.50;0.00;;;;;6.28;74.60;99257.53;5093057;27;45410;-82
2022/11/22 00:24:32;;;;;;;;;0.25;0.00;;;;;6.27;74.71;99261.88;5076091;27;45508;-82
2022/11/22 00:26:57;;;;;;;;;0.75;0.75;;;;;6.25;74.75;99255.91;5092566;27;62854;-81
2022/11/22 00:29:23;;;;;;;;;0.00;0.00;;;;;6.25;74.65;99252.50;5075338;28;67807;-82
2022/11/22 00:31:48;;;;;;;;;0.00;0.00;;;;;6.25;74.77;99257.66;5077530;28;45450;-82
2022/11/22 00:34:13;;;;;;;;;0.00;0.00;;;;;6.24;74.79;99248.22;5075116;28;68509;-82
2022/11/22 00:36:39;;;;;;;;;1.25;0.00;;;;;6.26;74.44;99259.34;5076240;27;63638;-82
2022/11/22 00:39:04;;;;;;;;;2.00;1.00;;;;;6.25;74.61;99250.75;5074490;28;58659;-82
2022/11/22 00:41:29;;;;;;;;;0.00;0.00;;;;;6.27;74.62;99256.72;5076475;27;62862;-82
2022/11/22 00:43:55;;;;;;;;;2.00;0.00;;;;;6.28;74.88;99253.25;5076311;28;63496;-81
2022/11/22 00:46:20;;;;;;;;;0.00;0.00;;;;;6.30;74.48;99243.69;5074816;28;72322;-81
2022/11/22 00:48:45;;;;;;;;;1.00;0.00;;;;;6.33;74.31;99256.50;5076524;28;65048;-81
2022/11/22 00:51:11;;;;;;;;;0.00;0.00;;;;;6.33;74.11;99255.66;5076112;28;61301;-81
2022/11/22 00:53:37;;;;;;;;;2.00;0.00;;;;;6.35;74.18;99256.44;5076896;28;45465;-81
2022/11/22 00:56:02;;;;;;;;;3.00;0.00;;;;;6.35;74.19;99244.38;5074958;28;62699;-82
2022/11/22 00:58:27;;;;;;;;;1.25;0.75;;;;;6.35;74.24;99249.53;5075451;28;46972;-82
2022/11/22 01:00:53;;;;;;;;;2.00;0.00;;;;;6.38;74.50;99236.50;5076505;28;57882;-82
2022/11/22 01:03:18;;;;;;;;;0.00;0.00;;;;;6.40;73.98;99255.38;5076928;28;45479;-82
2022/11/22 01:05:43;;;;;;;;;0.00;0.00;;;;;6.40;73.78;99252.78;5073997;28;75690;-82
2022/11/22 01:08:09;;;;;;;;;0.00;0.00;;;;;6.43;73.94;99251.03;5075985;28;68527;-81
2022/11/22 01:10:35;;;;;;;;;0.50;0.00;;;;;6.45;73.81;99244.88;5076961;28;45238;-82
2022/11/22 01:13:00;;;;;;;;;1.50;0.00;;;;;6.45;73.43;99251.81;5075652;28;45367;-82
2022/11/22 01:15:26;;;;;;;;;0.00;0.00;;;;;6.48;73.67;99237.03;5076273;28;57888;-82
2022/11/22 01:17:51;;;;;;;;;0.00;0.00;;;;;6.51;73.73;99243.81;5074876;28;59149;-82
2022/11/22 01:20:16;;;;;;;;;0.00;0.00;;;;;6.52;73.44;99232.56;5074165;28;69260;-82
2022/11/22 01:22:41;;;;;;;;;2.00;0.00;;;;;6.52;73.56;99263.59;5075223;28;45704;-81
2022/11/22 01:25:07;;;;;;;;;1.00;0.00;;;;;6.55;73.63;99246.22;5073835;27;74207;-80
2022/11/22 01:27:33;;;;;;;;;0.50;0.00;;;;;6.57;73.20;99252.22;5076332;28;45358;-81
2022/11/22 01:29:58;;;;;;;;;2.00;0.25;;;;;6.59;73.27;99249.53;5075368;28;45496;-82
2022/11/22 01:32:24;;;;;;;;;1.00;0.00;;;;;6.59;73.75;99249.53;5074364;28;64850;-81
2022/11/22 01:34:49;;;;;;;;;2.25;0.00;;;;;6.60;73.07;99253.81;5074810;28;45495;-81
2022/11/22 01:37:14;;;;;;;;;1.00;0.00;;;;;6.57;73.48;99244.47;5074065;28;68793;-81
2022/11/22 01:39:40;;;;;;;;;0.00;0.00;;;;;6.58;73.50;99250.47;5076578;27;45380;-81
2022/11/22 01:42:05;;;;;;;;;1.25;0.50;;;;;6.60;73.53;99246.06;5074914;28;45335;-81
2022/11/22 01:44:31;;;;;;;;;4.00;0.75;;;;;6.61;73.53;99244.31;5074136;28;65226;-81
2022/11/22 01:47:03;;;;;;;;;0.50;0.00;;;;;6.59;73.54;99234.03;5076285;28;45463;-82
2022/11/22 01:49:32;;;;;;;;;3.50;1.00;;;;;6.58;73.94;99235.78;5075818;28;45327;-81
2022/11/22 01:52:02;;;;;;;;;4.00;0.00;;;;;6.60;74.10;99233.16;5075057;28;45548;-82
2022/11/22 01:54:32;;;;;;;;;0.75;0.75;;;;;6.63;73.88;99227.88;5074424;28;46510;-81
2022/11/22 01:57:02;;;;;;;;;1.00;0.00;;;;;6.63;73.66;99219.25;5074945;28;45651;-82
2022/11/22 01:59:30;;;;;;;;;0.00;0.00;;;;;6.63;73.73;99221.84;5075010;28;45379;-81
2022/11/22 02:01:56;;;;;;;;;1.75;0.00;;;;;6.63;73.67;99222.69;5074895;28;45375;-81
2022/11/22 02:04:22;;;;;;;;;3.00;0.00;;;;;6.64;74.11;99239.06;5074569;28;72952;-81
2022/11/22 02:06:56;;;;;;;;;1.00;0.00;;;;;6.63;73.88;99224.41;5074670;28;45414;-81
2022/11/22 02:09:21;;;;;;;;;1.00;0.00;;;;;6.62;73.99;99226.16;5074844;28;45486;-81
2022/11/22 02:11:51;;;;;;;;;2.00;0.00;;;;;6.62;73.67;99228.75;5074954;27;67903;-81
2022/11/22 02:14:23;;;;;;;;;0.00;0.00;;;;;6.58;73.62;99237.53;5074634;28;45272;-82
2022/11/22 02:16:49;;;;;;;;;0.00;0.00;;;;;6.59;74.30;99246.97;5074768;28;45469;-81
2022/11/22 02:19:53;;;;;;;;;0.00;0.00;;;;;6.59;73.91;99234.03;5073407;28;68750;-82
2022/11/22 02:22:32;;;;;;;;;1.50;0.00;;;;;6.56;74.18;99223.81;5066576;28;45371;-82
2022/11/22 02:25:10;;;;;;;;;1.00;0.00;;;;;6.55;74.46;99235.03;5074153;27;46378;-81
2022/11/22 02:27:35;;;;;;;;;1.00;0.00;;;;;6.54;74.55;99234.22;5074558;28;45856;-82
2022/11/22 02:30:01;;;;;;;;;0.00;0.00;;;;;6.55;74.29;99241.06;5074688;28;67275;-81
2022/11/22 02:32:26;;;;;;;;;1.00;1.00;;;;;6.54;74.51;99226.47;5075522;28;45384;-80
2022/11/22 02:34:51;;;;;;;;;0.00;0.00;;;;;6.55;74.46;99222.13;5073296;28;75508;-81
2022/11/22 02:37:24;;;;;;;;;0.00;0.00;;;;;6.54;74.65;99218.69;5074353;28;45366;-81
2022/11/22 02:39:57;;;;;;;;;2.00;0.00;;;;;6.51;74.69;99213.63;5075792;28;45322;-80
2022/11/22 02:42:24;;;;;;;;;0.00;0.00;;;;;6.49;74.48;99215.44;5054094;28;45507;-81
2022/11/22 02:44:49;;;;;;;;;1.00;0.00;;;;;6.46;74.93;99223.28;5054012;28;45418;-81
2022/11/22 02:47:15;;;;;;;;;2.00;1.00;;;;;6.45;74.78;99210.44;5054046;28;67060;-81
2022/11/22 02:49:41;;;;;;;;;0.00;0.00;;;;;6.48;75.18;99210.31;5053718;28;52186;-81
2022/11/22 02:52:06;;;;;;;;;0.25;0.25;;;;;6.49;75.13;99205.09;5054078;28;45344;-81
2022/11/22 02:54:32;;;;;;;;;0.00;0.00;;;;;6.54;75.24;99204.94;5053449;28;46992;-81
2022/11/22 02:56:57;;;;;;;;;0.00;0.00;;;;;6.58;74.93;99197.00;5052755;28;71853;-81
2022/11/22 02:59:22;;;;;;;;;4.00;0.50;;;;;6.63;74.95;99203.75;5054231;28;45253;-81
2022/11/22 03:01:48;;;;;;;;;4.00;2.00;;;;;6.66;75.02;99198.47;5055300;28;45487;-81
2022/11/22 03:04:23;;;;;;;;;2.50;0.00;;;;;6.69;74.94;99199.19;5058036;28;51074;-82
2022/11/22 03:06:50;;;;;;;;;0.25;0.00;;;;;6.71;75.25;99187.03;5058311;28;45641;-81
2022/11/22 03:09:15;;;;;;;;;0.00;0.00;;;;;6.74;74.92;99176.59;5058629;28;45280;-81
2022/11/22 03:11:41;;;;;;;;;0.00;0.00;;;;;6.77;75.01;99181.63;5056432;28;61938;-81
2022/11/22 03:14:06;;;;;;;;;0.00;0.00;;;;;6.79;74.73;99173.81;5056956;28;49531;-81
2022/11/22 03:16:31;;;;;;;;;0.00;0.00;;;;;6.78;74.79;99177.31;5058092;28;45395;-82
2022/11/22 03:18:57;;;;;;;;;0.00;0.00;;;;;6.77;75.08;99166.13;5056128;28;68176;-81
2022/11/22 03:21:22;;;;;;;;;0.00;0.00;;;;;6.81;74.85;99163.41;5057610;28;63485;-81
2022/11/22 03:23:47;;;;;;;;;0.00;0.00;;;;;6.82;75.07;99171.13;5058519;27;70494;-81
2022/11/22 03:26:12;;;;;;;;;0.75;0.00;;;;;6.83;74.88;99167.63;5077835;27;63907;-81
2022/11/22 03:28:38;;;;;;;;;1.00;0.00;;;;;6.84;75.47;99164.16;5076627;28;57823;-80
2022/11/22 03:31:05;;;;;;;;;0.00;0.00;;;;;6.87;74.96;99176.09;5077986;28;45298;-81
2022/11/22 03:33:30;;;;;;;;;1.00;0.00;;;;;6.88;75.32;99165.69;5078235;28;45388;-81
2022/11/22 03:35:56;;;;;;;;;0.00;0.00;;;;;6.92;75.12;99163.84;5078143;27;45318;-81
2022/11/22 03:38:21;;;;;;;;;1.00;0.00;;;;;6.91;75.40;99164.72;5078423;28;45394;-81
2022/11/22 03:40:47;;;;;;;;;0.25;0.00;;;;;6.91;75.31;99167.31;5076003;28;65404;-81
2022/11/22 03:43:12;;;;;;;;;0.00;0.00;;;;;6.91;75.51;99164.72;5077636;28;59918;-81
2022/11/22 03:45:43;;;;;;;;;0.00;0.00;;;;;6.91;75.61;99164.72;5077057;28;58390;-81
2022/11/22 03:48:09;;;;;;;;;0.00;0.00;;;;;6.90;75.54;99169.06;5077097;28;45370;-81
2022/11/22 03:50:34;;;;;;;;;0.00;0.00;;;;;6.92;75.70;99153.50;5077371;28;64799;-81
2022/11/22 03:52:59;;;;;;;;;0.00;0.00;;;;;6.97;75.80;99161.94;5075591;28;72975;-81
2022/11/22 03:55:24;;;;;;;;;1.00;0.00;;;;;6.97;75.60;99164.50;5077022;28;65808;-81
2022/11/22 03:57:50;;;;;;;;;1.50;0.00;;;;;6.98;75.53;99163.59;5077043;28;66752;-81
2022/11/22 04:00:15;;;;;;;;;0.00;0.00;;;;;6.97;75.37;99156.75;5075675;28;60782;-81
2022/11/22 04:02:41;;;;;;;;;0.00;0.00;;;;;6.94;75.86;99165.44;5077815;28;46142;-82
2022/11/22 04:05:06;;;;;;;;;2.00;0.00;;;;;6.94;75.47;99169.78;5075454;28;68656;-81
2022/11/22 04:07:32;;;;;;;;;2.00;0.00;;;;;6.96;75.96;99170.56;5076608;28;45417;-82
2022/11/22 04:09:57;;;;;;;;;0.00;0.00;;;;;6.97;75.66;99165.34;5075670;28;66944;-81
2022/11/22 04:12:22;;;;;;;;;1.25;0.00;;;;;6.99;75.67;99170.47;5076924;28;67122;-81
2022/11/22 04:15:06;;;;;;;;;0.00;0.00;;;;;7.01;76.20;99173.00;5092487;27;61222;-81
2022/11/22 04:17:44;;;;;;;;;1.75;0.75;;;;;7.05;76.08;99159.03;5077718;28;45625;-81
2022/11/22 04:23:15;;;;;;;;;1.00;0.00;;;;;7.09;76.05;99150.25;5077447;28;45552;-81
2022/11/22 04:25:44;;;;;;;;;0.00;0.00;;;;;7.11;75.53;99149.28;5061993;28;45892;-81
2022/11/22 04:28:11;;;;;;;;;1.00;0.00;;;;;7.13;75.83;99146.63;5076505;28;45499;-80
2022/11/22 04:33:21;;;;;;;;;0.00;0.00;;;;;7.16;76.05;99133.56;5077340;28;45494;-82
2022/11/22 04:35:46;;;;;;;;;0.00;0.00;;;;;7.19;75.63;99123.09;5076007;28;45490;-81
2022/11/22 04:38:12;;;;;;;;;1.25;0.00;;;;;7.22;75.58;99120.38;5077517;28;45370;-81
2022/11/22 04:40:38;;;;;;;;;0.00;0.00;;;;;7.23;75.66;99119.47;5076017;28;45369;-81
2022/11/22 04:45:48;;;;;;;;;0.00;0.00;;;;;7.29;75.41;99115.78;5077142;28;45637;-81
2022/11/22 04:48:13;;;;;;;;;1.25;0.00;;;;;7.30;75.26;99107.97;5076052;28;45312;-81
2022/11/22 04:53:25;;;;;;;;;0.00;0.00;;;;;7.38;75.51;99122.34;5075775;28;45385;-81
2022/11/22 04:55:50;;;;;;;;;0.00;0.00;;;;;7.36;75.19;99123.22;5075715;27;46030;-82
2022/11/22 04:58:16;;;;;;;;;0.00;0.00;;;;;7.37;75.25;99137.00;5075463;28;45310;-81
2022/11/22 05:00:42;;;;;;;;;0.25;0.00;;;;;7.38;75.33;99127.53;5075914;28;45450;-81
2022/11/22 05:03:07;;;;;;;;;0.00;0.00;;;;;7.38;75.29;99124.94;5075631;28;45351;-82
2022/11/22 05:05:37;;;;;;;;;0.00;0.00;;;;;7.39;75.39;99114.50;5075062;28;58239;-81
2022/11/22 05:08:03;;;;;;;;;0.75;0.00;;;;;7.41;75.35;99137.72;5075791;28;45381;-82
2022/11/22 05:10:55;;;;;;;;;0.75;0.00;;;;;7.40;75.19;99126.53;5075610;28;45292;-81
2022/11/22 05:13:14;;;;;;;;;0.00;0.00;;;;;7.41;75.48;99133.41;5075162;28;45309;-81
2022/11/22 05:15:40;;;;;;;;;1.50;0.00;;;;;7.43;75.53;99130.75;5076604;28;45290;-81
2022/11/22 05:18:05;;;;;;;;;0.00;0.00;;;;;7.47;75.52;99134.91;5057618;28;65459;-81
2022/11/22 05:20:30;;;;;;;;;0.25;0.25;;;;;7.47;75.28;99122.78;5076692;28;45362;-82
2022/11/22 05:25:40;;;;;;;;;0.00;0.00;;;;;7.48;75.79;99126.22;5075003;27;45269;-81
2022/11/22 05:28:05;;;;;;;;;0.00;0.00;;;;;7.50;75.89;99138.22;5075167;28;45403;-82
2022/11/22 05:30:31;;;;;;;;;0.00;0.00;;;;;7.47;76.67;99140.91;5074734;28;59694;-81
2022/11/22 05:32:56;;;;;;;;;0.00;0.00;;;;;7.43;77.08;99141.97;5075564;27;68650;-81
2022/11/22 05:35:21;;;;;;;;;0.00;0.00;;;;;7.39;77.41;99124.00;5076369;27;45236;-82
2022/11/22 05:37:47;;;;;;;;;0.00;0.00;;;;;7.35;78.22;99144.00;5075555;27;69682;-81
2022/11/22 05:40:12;;;;;;;;;0.00;0.00;;;;;7.29;78.30;99145.09;5074471;28;68108;-82
2022/11/22 05:42:37;;;;;;;;;0.00;0.00;;;;;7.26;78.57;99149.56;5075318;28;64485;-82
2022/11/22 05:45:03;;;;;;;;;1.00;0.00;;;;;7.22;79.07;99158.34;5074962;28;72699;-82
2022/11/22 05:47:32;;;;;;;;;0.00;0.00;;;;;7.16;79.07;99155.09;5076474;28;45588;-81
2022/11/22 05:49:58;;;;;;;;;1.00;0.00;;;;;7.13;79.32;99147.47;5076232;28;45534;-82
2022/11/22 05:52:23;;;;;;;;;0.00;0.00;;;;;7.13;79.67;99156.97;5073964;28;73836;-82
2022/11/22 05:54:48;;;;;;;;;0.00;0.00;;;;;7.10;79.68;99154.53;5075665;28;55190;-82
2022/11/22 05:57:14;;;;;;;;;0.00;0.00;;;;;7.09;79.75;99158.00;5073985;28;58649;-82
2022/11/22 05:59:39;;;;;;;;;0.00;0.00;;;;;7.08;79.82;99166.69;5074190;28;62715;-82
2022/11/22 06:02:04;;;;;;;;;0.00;0.00;;;;;7.06;80.20;99161.56;5075093;28;73635;-82
2022/11/22 06:04:29;;;;;;;;;0.00;0.00;;;;;7.04;79.84;99145.25;5075827;28;45372;-82
2022/11/22 06:06:55;;;;;;;;;0.00;0.00;;;;;7.08;79.94;99138.22;5075253;28;65370;-82
2022/11/22 06:09:21;;;;;;;;;0.00;0.00;;;;;7.08;80.18;99139.06;5075979;28;45454;-82
2022/11/22 06:11:47;;;;;;;;;0.00;0.00;;;;;7.11;80.24;99135.50;5075449;28;46080;-82
2022/11/22 06:14:12;;;;;;;;;0.00;0.00;;;;;7.08;80.44;99125.28;5073889;28;66987;-82
2022/11/22 06:16:37;;;;;;;;;1.25;0.00;;;;;7.08;80.53;99128.72;5075269;28;61350;-82
2022/11/22 06:19:02;;;;;;;;;0.00;0.00;;;;;7.09;80.68;99120.03;5090817;27;63364;-82
2022/11/22 06:21:28;;;;;;;;;4.75;0.00;;;;;7.10;80.19;99126.91;5073609;28;72260;-81
2022/11/22 06:23:54;;;;;;;;;1.00;0.00;;;;;7.10;80.34;99145.00;5074703;27;65542;-81
2022/11/22 06:26:20;;;;;;;;;0.00;0.00;;;;;7.08;80.60;99133.88;5073638;28;61107;-82
2022/11/22 06:28:47;;;;;;;;;1.00;0.00;;;;;7.09;80.92;99145.06;5074641;28;45476;-81
2022/11/22 06:31:20;;;;;;;;;1.25;1.00;;;;;7.10;80.71;99152.78;5074476;28;45485;-82
2022/11/22 06:33:46;;;;;;;;;0.50;0.00;;;;;7.11;80.79;99141.53;5074474;28;45803;-81
2022/11/22 06:36:16;;;;;;;;;0.75;0.00;;;;;7.13;80.53;99139.72;5076808;28;45417;-81
2022/11/22 06:38:42;;;;;;;;;0.50;0.00;;;;;7.13;80.40;99131.94;5078184;27;45575;-82
2022/11/22 06:41:10;;;;;;;;;0.00;0.00;;;;;7.13;80.73;99139.72;5077327;28;47188;-81
2022/11/22 06:43:38;;;;;;;;;0.00;0.00;;;;;7.18;80.57;99136.94;5077773;28;45850;-82
2022/11/22 06:46:04;;;;;;;;;0.00;0.00;;;;;7.22;80.59;99135.06;5079356;28;45347;-81
2022/11/22 06:48:32;;;;;;;;;1.00;0.75;;;;;7.25;80.35;99133.19;5077922;28;45331;-81
2022/11/22 06:51:29;;;;;;;;;0.00;0.00;;;;;7.28;80.02;99137.38;5077625;28;46640;-81
2022/11/22 06:53:55;;;;;;;;;0.00;0.00;;;;;7.29;79.84;99134.75;5075281;27;45651;-80
2022/11/22 06:56:26;;;;;;;;;0.00;0.00;;;;;7.31;79.79;99140.69;5077736;28;45354;-82
2022/11/22 06:58:52;;;;;;;;;0.50;0.50;;;;;7.34;79.92;99147.50;5078966;28;45346;-82
2022/11/22 07:01:20;;;;;;;;;0.00;0.00;;;;;7.34;80.04;99150.94;5078670;28;46020;-81
2022/11/22 07:03:46;;;;;;;;;1.00;0.00;;;;;7.36;79.83;99161.22;5078570;28;45730;-82
2022/11/22 07:06:13;;;;;;;;;0.00;0.00;;;;;7.41;79.47;99153.25;5078960;28;45513;-82
2022/11/22 07:08:38;;;;;;;;;0.00;0.00;;;;;7.44;79.95;99156.56;5078529;28;45447;-82
2022/11/22 07:11:09;;;;;;;;;0.00;0.00;;;;;7.47;79.35;99153.03;5077196;28;47233;-82
2022/11/22 07:13:35;;;;;;;;;0.00;0.00;;;;;7.48;79.56;99160.72;5077257;28;45404;-82
2022/11/22 07:16:02;;;;;;;;;0.00;0.00;;;;;7.49;78.96;99175.34;5077484;27;45343;-83
2022/11/22 07:18:28;;;;;;;;;0.75;0.00;;;;;7.51;79.20;99157.16;5111592;27;45575;-83
2022/11/22 07:21:03;;;;;;;;;0.00;0.00;;;;;7.54;78.48;99151.84;5076889;28;47318;-82
2022/11/22 07:23:28;;;;;;;;;0.00;0.00;;;;;7.56;78.71;99165.59;5077069;28;45645;-82
2022/11/22 07:25:54;;;;;;;;;0.00;0.00;;;;;7.58;78.46;99187.09;5060152;28;45642;-80
2022/11/22 07:28:19;;;;;;;;;0.00;0.00;;;;;7.59;78.35;99182.75;5077387;28;45246;-82
2022/11/22 07:30:45;;;;;;;;;3.25;0.00;;;;;7.61;77.95;99191.28;5078231;28;45725;-82
2022/11/22 07:33:10;;;;;;;;;0.00;0.00;;;;;7.64;78.38;99211.88;5075885;28;71962;-81
2022/11/22 07:35:35;;;;;;;;;0.00;0.00;;;;;7.61;78.54;99196.47;5076210;28;67984;-81
2022/11/22 07:38:01;;;;;;;;;0.00;0.00;;;;;7.61;77.76;99209.41;5077881;28;45351;-82
2022/11/22 07:40:26;;;;;;;;;0.25;0.00;;;;;7.61;78.30;99212.00;5076544;28;47979;-81
2022/11/22 07:42:52;;;;;;;;;0.00;0.00;;;;;7.57;77.97;99217.28;5076921;28;45418;-81
2022/11/22 07:45:17;;;;;;;;;0.00;0.00;;;;;7.52;78.15;99201.13;5076981;28;69468;-81
2022/11/22 07:47:42;;;;;;;;;0.00;0.00;;;;;7.50;78.58;99202.94;5076838;28;45331;-81
2022/11/22 07:50:08;;;;;;;;;0.00;0.00;;;;;7.50;78.95;99212.44;5093903;27;47474;-81
2022/11/22 07:52:33;;;;;;;;;0.00;0.00;;;;;7.49;78.71;99211.59;5077673;28;45383;-81
2022/11/22 07:54:59;;;;;;;;;0.00;0.00;;;;;7.49;79.07;99208.19;5076825;28;66304;-81
2022/11/22 07:57:24;;;;;;;;;0.00;0.00;;;;;7.48;79.25;99214.25;5076100;28;65082;-82
2022/11/22 07:59:50;;;;;;;;;0.00;0.00;;;;;7.44;79.83;99204.91;5075631;28;72862;-82
2022/11/22 08:02:15;;;;;;;;;1.25;0.00;;;;;7.40;81.40;99208.53;5076178;28;52603;-84
2022/11/22 08:04:40;;;;;;;;;0.00;0.00;;;;;7.35;81.19;99203.53;5075578;28;68230;-82
2022/11/22 08:07:06;;;;;;;;;0.00;0.00;;;;;7.32;81.72;99207.09;5076815;27;59643;-82
2022/11/22 08:09:31;;;;;;;;;1.75;0.00;;;;;7.33;81.82;99206.19;5076474;28;45396;-82
2022/11/22 08:11:56;;;;;;;;;0.00;0.00;;;;;7.36;81.35;99210.41;5058708;28;65593;-82
2022/11/22 08:14:22;;;;;;;;;3.75;1.00;;;;;7.40;81.69;99211.97;5077671;28;45460;-82
2022/11/22 08:16:47;;;;;;;;;0.00;0.00;;;;;7.40;81.81;99211.97;5076496;28;45354;-82
2022/11/22 08:19:16;;;;;;;;;0.00;0.00;;;;;7.43;82.03;99211.00;5077461;28;47644;-82
2022/11/22 08:21:45;;;;;;;;;1.50;0.00;;;;;7.47;81.83;99228.13;5075897;28;45643;-81
2022/11/22 08:24:10;;;;;;;;;0.00;0.00;;;;;7.52;81.75;99218.38;5076218;27;45526;-81
2022/11/22 08:26:36;;;;;;;;;1.00;0.00;;;;;7.56;81.54;99218.22;5076677;28;63538;-82
2022/11/22 08:29:03;;;;;;;;;2.00;0.00;;;;;7.62;81.97;99214.53;5076332;28;75587;-81
2022/11/22 08:31:29;;;;;;;;;2.00;0.00;;;;;7.66;81.45;99217.84;5076240;28;45439;-81
2022/11/22 08:33:54;;;;;;;;;0.00;0.00;;;;;7.68;81.90;99223.78;5075670;28;54726;-82
2022/11/22 08:36:20;;;;;;;;;0.25;0.00;;;;;7.69;81.03;99225.47;5075312;28;57588;-82
2022/11/22 08:38:45;;;;;;;;;0.25;0.00;;;;;7.72;81.83;99233.94;5077121;28;52220;-81
2022/11/22 08:41:11;;;;;;;;;0.50;0.00;;;;;7.78;81.53;99243.22;5077158;27;45413;-82
2022/11/22 08:43:36;;;;;;;;;0.00;0.00;;;;;7.80;81.82;99235.38;5077324;28;45391;-82
2022/11/22 08:46:02;;;;;;;;;0.00;0.00;;;;;7.83;81.67;99243.03;5080629;27;45713;-81
2022/11/22 08:48:29;;;;;;;;;2.00;0.50;;;;;7.90;81.96;99241.88;5076028;28;47042;-82
2022/11/22 08:50:58;;;;;;;;;1.00;0.00;;;;;7.96;81.84;99236.44;5075147;28;45811;-81
2022/11/22 08:53:24;;;;;;;;;2.00;0.00;;;;;8.06;81.54;99231.69;5075589;28;45455;-82
2022/11/22 08:55:50;;;;;;;;;0.00;0.00;;;;;8.17;81.31;99242.44;5074578;28;45494;-80
2022/11/22 08:58:16;;;;;;;;;0.25;0.00;;;;;8.22;80.81;99235.31;5074013;28;46857;-80
2022/11/22 09:00:41;;;;;;;;;2.50;0.00;;;;;8.29;80.65;99246.28;5076324;27;45324;-82
2022/11/22 09:03:06;;;;;;;;;1.00;0.50;;;;;8.42;80.87;99244.03;5074789;28;48588;-82
2022/11/22 09:05:32;;;;;;;;;1.00;0.00;;;;;8.51;80.20;99235.84;5076092;28;51220;-82
2022/11/22 09:07:57;;;;;;;;;2.00;0.00;;;;;8.52;79.65;99253.94;5075092;28;60683;-81
2022/11/22 09:10:23;;;;;;;;;1.00;1.00;;;;;8.53;79.70;99249.59;5075444;28;45452;-81
2022/11/22 09:12:49;;;;;;;;;0.00;0.00;;;;;8.56;79.15;99246.00;5077021;28;45357;-82
2022/11/22 09:15:14;;;;;;;;;1.75;1.75;;;;;8.65;79.38;99241.22;5076749;28;45502;-81
2022/11/22 09:17:41;;;;;;;;;0.50;0.50;;;;;8.76;78.77;99243.34;5075745;28;70442;-81
2022/11/22 09:20:07;;;;;;;;;2.25;0.25;;;;;8.87;78.72;99251.50;5076351;28;45685;-82
2022/11/22 09:22:32;;;;;;;;;0.00;0.00;;;;;9.00;78.39;99250.94;5075570;28;45394;-82
2022/11/22 09:24:58;;;;;;;;;4.00;1.00;;;;;9.07;77.39;99240.19;5076309;27;45755;-82
2022/11/22 09:27:23;;;;;;;;;2.00;0.00;;;;;9.11;76.88;99246.09;5074393;28;69032;-82
2022/11/22 09:29:48;;;;;;;;;0.25;0.00;;;;;9.13;77.19;99233.03;5076551;28;46262;-81
2022/11/22 09:32:14;;;;;;;;;0.25;0.00;;;;;9.17;76.79;99240.59;5075268;28;45295;-82
2022/11/22 09:34:39;;;;;;;;;0.00;0.00;;;;;9.15;76.50;99221.66;5074120;28;65464;-80
2022/11/22 09:37:04;;;;;;;;;4.50;0.00;;;;;9.11;76.27;99244.31;5074363;28;69649;-82
2022/11/22 09:39:30;;;;;;;;;1.75;0.75;;;;;9.11;76.10;99254.69;5074310;28;70740;-80
2022/11/22 09:42:29;;;;;;;;;2.00;0.00;;;;;9.16;76.31;99264.88;5076342;27;45304;-82
2022/11/22 09:44:57;;;;;;;;;0.00;0.00;;;;;9.23;75.77;99258.50;5068332;28;45431;-80
2022/11/22 09:47:44;;;;;;;;;0.00;0.00;;;;;9.33;75.83;99252.88;5076282;27;45537;-79
2022/11/22 09:50:20;;;;;;;;;0.50;0.00;;;;;9.43;75.05;99241.13;5080356;27;45341;-79
2022/11/22 09:53:25;;;;;;;;;0.00;0.00;;;;;9.57;74.97;99237.88;5095312;27;45335;-79
2022/11/22 09:55:53;;;;;;;;;1.00;0.25;;;;;9.68;74.74;99245.97;5095555;27;45251;-80
2022/11/22 09:58:32;;;;;;;;;2.25;0.00;;;;;9.78;74.84;99241.16;5078007;27;48179;-81
2022/11/22 10:01:25;;;;;;;;;1.00;1.00;;;;;9.87;74.01;99249.34;5086570;27;45797;-80
2022/11/22 10:03:55;;;;;;;;;1.00;0.00;;;;;9.92;73.77;99254.31;5086652;27;45380;-79
2022/11/22 10:06:28;;;;;;;;;2.00;1.00;;;;;9.93;72.97;99258.59;5095099;27;45398;-79
2022/11/22 10:09:15;;;;;;;;;0.00;0.00;;;;;9.96;73.42;99250.66;5078193;27;47451;-80
2022/11/22 10:12:21;;;;;;;;;1.00;0.00;;;;;10.07;73.37;99257.91;5073741;27;45290;-79
2022/11/22 10:14:51;;;;;;;;;1.50;0.25;;;;;10.15;72.78;99258.34;5003158;28;45222;-80
2022/11/22 10:18:01;;;;;;;;;1.75;0.00;;;;;10.25;73.14;99269.13;5036102;28;46432;-79
2022/11/22 10:20:28;;;;;;;;;1.00;1.00;;;;;10.37;72.37;99280.69;4945018;28;45466;-80
2022/11/22 10:22:54;;;;;;;;;2.50;0.00;;;;;10.42;71.96;99274.34;4941680;28;45667;-80
2022/11/22 10:25:38;;;;;;;;;1.50;1.25;;;;;10.52;71.71;99273.88;4933282;28;45476;-79
2022/11/22 10:28:17;;;;;;;;;2.50;0.00;;;;;10.65;71.41;99275.72;4953414;28;45320;-80
2022/11/22 10:31:16;;;;;;;;;3.00;1.00;;;;;10.77;70.18;99279.47;4956576;28;45551;-80
2022/11/22 10:33:54;;;;;;;;;0.00;0.00;;;;;10.90;70.99;99274.44;4956827;28;45612;-80
2022/11/22 10:36:21;;;;;;;;;0.00;0.00;;;;;11.11;69.91;99288.06;4954015;28;45513;-81
2022/11/22 10:39:01;;;;;;;;;1.00;0.00;;;;;11.21;69.39;99291.00;4957541;28;45399;-80
2022/11/22 10:41:38;;;;;;;;;1.50;0.00;;;;;11.27;68.36;99288.06;4954739;28;46387;-81
2022/11/22 10:44:18;;;;;;;;;1.75;0.75;;;;;11.35;67.69;99296.31;4955293;28;45738;-80
2022/11/22 10:46:56;;;;;;;;;1.00;0.00;;;;;11.42;68.09;99287.22;5026160;28;45440;-80
2022/11/22 10:50:03;;;;;;;;;0.50;0.50;;;;;11.48;67.74;99283.44;5005786;28;45532;-81
2022/11/22 10:53:05;;;;;;;;;1.50;0.00;;;;;11.74;67.43;99278.53;5001637;28;46308;-81
2022/11/22 10:55:45;;;;;;;;;0.00;0.00;;;;;12.09;67.39;99273.91;5072481;28;45367;-81
2022/11/22 10:58:23;;;;;;;;;0.00;0.00;;;;;12.70;66.15;99289.44;5076482;27;45390;-81
2022/11/22 11:00:54;;;;;;;;;1.50;0.75;;;;;13.30;63.91;99304.03;5066054;27;45404;-81
2022/11/22 11:03:34;;;;;;;;;0.00;0.00;;;;;14.37;63.54;99290.13;5068833;27;48714;-81
2022/11/22 11:06:02;;;;;;;;;0.50;0.00;;;;;15.29;58.19;99302.94;5073389;27;45648;-81
2022/11/22 11:08:37;;;;;;;;;1.75;0.00;;;;;15.73;56.44;99312.97;5077826;27;45245;-81
2022/11/22 11:11:03;;;;;;;;;0.00;0.00;;;;;15.72;54.93;99291.13;5076653;27;45459;-81
2022/11/22 11:13:33;;;;;;;;;0.00;0.00;;;;;15.96;55.67;99303.44;5076172;27;54594;-81
2022/11/22 11:16:01;;;;;;;;;1.00;0.00;;;;;16.48;56.94;99303.94;5076194;27;45723;-80
2022/11/22 11:18:31;;;;;;;;;0.00;0.00;;;;;17.21;55.21;99295.59;5074894;27;45345;-80
2022/11/22 11:20:57;;;;;;;;;0.00;0.00;;;;;17.96;50.27;99319.47;5069463;27;45447;-81
2022/11/22 11:23:22;;;;;;;;;0.75;0.00;;;;;17.50;49.04;99315.28;5091644;27;47974;-80
2022/11/22 11:25:48;;;;;;;;;0.00;0.00;;;;;17.53;51.06;99299.22;5077179;27;69364;-81
2022/11/22 11:28:25;;;;;;;;;0.00;0.00;;;;;18.19;50.94;99299.94;5076715;27;45418;-81
2022/11/22 11:30:53;;;;;;;;;1.75;0.00;;;;;18.96;46.74;99308.41;5076280;27;45536;-81
2022/11/22 11:33:27;;;;;;;;;1.50;0.00;;;;;19.22;46.79;99321.13;5076202;27;46511;-81
2022/11/22 11:36:03;;;;;;;;;0.00;0.00;;;;;19.46;48.42;99307.59;5083465;27;45808;-81
2022/11/22 11:38:34;;;;;;;;;1.75;0.75;;;;;19.62;45.47;99313.19;5077795;27;45414;-82
2022/11/22 11:41:18;;;;;;;;;0.25;0.00;;;;;18.21;44.63;99314.78;5076286;27;45514;-81
2022/11/22 11:43:44;;;;;;;;;2.75;0.00;;;;;17.98;47.05;99307.84;5075635;27;46231;-81
2022/11/22 11:46:23;;;;;;;;;5.00;0.00;;;;;18.83;48.07;99306.00;5077267;27;45386;-82
2022/11/22 11:48:51;;;;;;;;;0.00;0.00;;;;;19.77;44.38;99316.28;5076337;27;45431;-81
2022/11/22 11:51:21;;;;;;;;;0.00;0.00;;;;;19.79;43.47;99309.06;5074478;27;45520;-81
2022/11/22 11:53:59;;;;;;;;;1.00;0.00;;;;;20.39;44.30;99305.38;5075719;27;47930;-81
2022/11/22 11:56:51;;;;;;;;;0.25;0.00;;;;;20.96;43.16;99306.22;5079624;27;45423;-81
2022/11/22 11:59:41;;;;;;;;;0.25;0.00;;;;;21.50;43.65;99303.72;5077307;27;45416;-82
2022/11/22 12:02:11;;;;;;;;;0.00;0.00;;;;;21.98;40.58;99321.06;5065182;27;45478;-81